createdAt,value
2022-09-27T00:01:10.048Z,12.60
2022-09-27T00:03:37.152Z,12.40
2022-09-27T00:06:13.341Z,12.20
2022-09-27T00:08:40.179Z,12.10
2022-09-27T00:11:09.088Z,12.10
2022-09-27T00:13:35.834Z,12.10
2022-09-27T00:16:05.420Z,12.10
2022-09-27T00:18:32.992Z,12.20
2022-09-27T00:21:10.468Z,12.20
2022-09-27T00:23:37.233Z,12.20
2022-09-27T00:26:04.717Z,12.20
2022-09-27T00:28:31.406Z,12.10
2022-09-27T00:30:58.359Z,12.10
2022-09-27T00:33:25.544Z,12.00
2022-09-27T00:35:52.530Z,12.00
2022-09-27T00:38:19.232Z,12.00
2022-09-27T00:40:46.330Z,11.90
2022-09-27T00:43:16.028Z,11.90
2022-09-27T00:45:43.276Z,11.90
2022-09-27T00:48:13.748Z,11.90
2022-09-27T00:50:43.019Z,11.90
2022-09-27T00:53:15.050Z,11.80
2022-09-27T00:55:53.634Z,11.70
2022-09-27T00:58:23.707Z,11.70
2022-09-27T01:00:52.121Z,11.70
2022-09-27T01:03:32.061Z,11.80
2022-09-27T01:05:59.799Z,11.80
2022-09-27T01:08:26.490Z,11.80
2022-09-27T01:11:00.540Z,11.80
2022-09-27T01:13:35.048Z,11.80
2022-09-27T01:16:10.923Z,11.80
2022-09-27T01:18:49.816Z,11.70
2022-09-27T01:21:45.876Z,11.70
2022-09-27T01:24:27.118Z,11.70
2022-09-27T01:27:12.594Z,11.70
2022-09-27T01:29:54.400Z,11.60
2022-09-27T01:32:27.113Z,11.50
2022-09-27T01:35:29.065Z,11.50
2022-09-27T01:37:55.796Z,11.50
2022-09-27T01:40:41.216Z,11.50
2022-09-27T01:43:10.928Z,11.50
2022-09-27T01:45:57.854Z,11.50
2022-09-27T01:48:27.189Z,11.50
2022-09-27T01:51:12.608Z,11.40
2022-09-27T01:53:50.692Z,11.40
2022-09-27T01:56:19.314Z,11.40
2022-09-27T01:59:12.482Z,11.40
2022-09-27T02:01:39.862Z,11.40
2022-09-27T02:04:08.094Z,11.30
2022-09-27T02:06:36.369Z,11.20
2022-09-27T02:09:05.853Z,11.20
2022-09-27T02:11:33.175Z,11.20
2022-09-27T02:14:12.759Z,11.10
2022-09-27T02:16:44.882Z,11.10
2022-09-27T02:19:30.445Z,11.10
2022-09-27T02:22:35.676Z,11.00
2022-09-27T02:25:07.267Z,11.00
2022-09-27T02:27:35.803Z,11.00
2022-09-27T02:30:07.983Z,11.00
2022-09-27T02:32:34.902Z,11.00
2022-09-27T02:35:03.952Z,11.00
2022-09-27T02:37:30.668Z,11.00
2022-09-27T02:39:57.825Z,11.00
2022-09-27T02:42:24.797Z,11.10
2022-09-27T02:44:51.568Z,11.10
2022-09-27T02:47:27.354Z,11.10
2022-09-27T02:49:54.262Z,11.00
2022-09-27T02:52:30.081Z,11.00
2022-09-27T02:54:59.508Z,11.00
2022-09-27T02:57:48.119Z,11.10
2022-09-27T03:00:19.743Z,11.00
2022-09-27T03:02:46.467Z,10.90
2022-09-27T03:05:30.290Z,10.90
2022-09-27T03:07:57.124Z,11.00
2022-09-27T03:10:25.577Z,11.00
2022-09-27T03:12:52.432Z,10.90
2022-09-27T03:15:19.082Z,10.90
2022-09-27T03:17:45.859Z,10.90
2022-09-27T03:20:12.630Z,10.90
2022-09-27T03:22:40.736Z,10.90
2022-09-27T03:25:07.816Z,10.80
2022-09-27T03:27:34.584Z,10.80
2022-09-27T03:30:01.301Z,10.80
2022-09-27T03:32:28.272Z,10.80
2022-09-27T03:34:55.452Z,10.70
2022-09-27T03:37:22.546Z,10.60
2022-09-27T03:39:49.256Z,10.70
2022-09-27T03:42:15.997Z,10.60
2022-09-27T03:44:43.248Z,10.50
2022-09-27T03:47:09.994Z,10.50
2022-09-27T03:49:36.730Z,10.40
2022-09-27T03:52:03.708Z,10.50
2022-09-27T03:54:30.392Z,10.50
2022-09-27T03:56:57.099Z,10.50
2022-09-27T03:59:23.742Z,10.30
2022-09-27T04:01:50.478Z,10.30
2022-09-27T04:04:17.265Z,10.40
2022-09-27T04:06:43.920Z,10.40
2022-09-27T04:09:10.644Z,10.30
2022-09-27T04:11:37.413Z,10.30
2022-09-27T04:14:05.687Z,10.30
2022-09-27T04:16:33.862Z,10.20
2022-09-27T04:19:01.617Z,10.20
2022-09-27T04:21:28.317Z,10.20
2022-09-27T04:23:54.962Z,10.10
2022-09-27T04:26:22.289Z,10.10
2022-09-27T04:28:54.306Z,10.10
2022-09-27T04:31:21.638Z,10.10
2022-09-27T04:33:48.427Z,10.00
2022-09-27T04:36:28.083Z,9.80
2022-09-27T04:38:59.269Z,9.70
2022-09-27T04:41:28.089Z,9.60
2022-09-27T04:43:59.228Z,9.70
2022-09-27T04:46:26.788Z,9.70
2022-09-27T04:48:53.585Z,9.70
2022-09-27T04:51:20.328Z,9.70
2022-09-27T04:53:47.602Z,9.80
2022-09-27T04:56:15.640Z,9.70
2022-09-27T04:58:42.318Z,9.70
2022-09-27T05:01:09.561Z,9.60
2022-09-27T05:03:36.362Z,9.60
2022-09-27T05:06:03.226Z,9.60
2022-09-27T05:08:29.976Z,9.60
2022-09-27T05:10:56.650Z,9.60
2022-09-27T05:13:23.421Z,9.50
2022-09-27T05:15:50.161Z,9.50
2022-09-27T05:18:18.056Z,9.30
2022-09-27T05:20:45.129Z,9.20
2022-09-27T05:23:12.290Z,9.20
2022-09-27T05:25:38.947Z,9.20
2022-09-27T05:28:06.214Z,9.20
2022-09-27T05:30:33.166Z,9.20
2022-09-27T05:32:59.860Z,9.30
2022-09-27T05:35:26.607Z,9.30
2022-09-27T05:37:54.375Z,9.30
2022-09-27T05:40:40.219Z,9.30
2022-09-27T05:43:08.329Z,9.20
2022-09-27T05:45:35.042Z,9.20
2022-09-27T05:48:01.995Z,9.10
2022-09-27T05:50:28.892Z,9.00
2022-09-27T05:52:55.637Z,9.00
2022-09-27T05:55:22.429Z,9.10
2022-09-27T05:57:59.338Z,9.10
2022-09-27T06:00:27.118Z,9.10
2022-09-27T06:02:58.515Z,9.20
2022-09-27T06:05:26.027Z,9.20
2022-09-27T06:07:53.274Z,9.30
2022-09-27T06:10:20.098Z,9.30
2022-09-27T06:12:46.787Z,9.30
2022-09-27T06:15:14.642Z,9.40
2022-09-27T06:17:41.408Z,9.50
2022-09-27T06:20:08.989Z,9.50
2022-09-27T06:22:36.862Z,9.50
2022-09-27T06:25:04.515Z,9.50
2022-09-27T06:27:31.940Z,9.60
2022-09-27T06:29:58.678Z,9.70
2022-09-27T06:32:25.901Z,9.80
2022-09-27T06:34:59.264Z,9.90
2022-09-27T06:37:31.637Z,10.00
2022-09-27T06:39:58.374Z,10.10
2022-09-27T06:42:27.697Z,10.20
2022-09-27T06:44:54.377Z,10.20
2022-09-27T06:47:21.103Z,10.30
2022-09-27T06:49:53.135Z,10.40
2022-09-27T06:52:19.814Z,10.50
2022-09-27T06:54:46.578Z,10.60
2022-09-27T06:57:33.245Z,10.70
2022-09-27T07:00:18.774Z,10.80
2022-09-27T07:02:46.015Z,10.90
2022-09-27T07:05:12.759Z,11.20
2022-09-27T07:07:39.906Z,11.40
2022-09-27T07:10:09.864Z,11.50
2022-09-27T07:12:37.596Z,11.70
2022-09-27T07:15:05.048Z,11.90
2022-09-27T07:17:32.295Z,12.10
2022-09-27T07:19:59.013Z,12.30
2022-09-27T07:22:25.713Z,12.50
2022-09-27T07:24:52.416Z,12.70
2022-09-27T07:27:19.089Z,13.00
2022-09-27T07:29:45.837Z,13.20
2022-09-27T07:32:12.547Z,13.50
2022-09-27T07:34:39.398Z,13.70
2022-09-27T07:37:06.131Z,14.00
2022-09-27T07:39:32.897Z,14.30
2022-09-27T07:42:00.247Z,14.50
2022-09-27T07:44:27.137Z,14.70
2022-09-27T07:46:53.826Z,15.00
2022-09-27T07:49:20.530Z,15.30
2022-09-27T07:51:47.249Z,15.50
2022-09-27T07:54:13.965Z,15.70
2022-09-27T07:56:40.681Z,15.90
2022-09-27T07:59:07.388Z,16.00
2022-09-27T08:01:35.153Z,16.10
2022-09-27T08:04:02.041Z,16.30
2022-09-27T08:06:29.682Z,16.40
2022-09-27T08:08:58.788Z,16.50
2022-09-27T08:11:25.553Z,16.70
2022-09-27T08:13:52.738Z,16.90
2022-09-27T08:16:19.552Z,17.10
2022-09-27T08:18:46.341Z,17.20
2022-09-27T08:21:13.066Z,17.30
2022-09-27T08:23:39.779Z,17.40
2022-09-27T08:26:06.468Z,17.50
2022-09-27T08:28:33.665Z,17.60
2022-09-27T08:31:00.565Z,17.50
2022-09-27T08:33:31.428Z,17.60
2022-09-27T08:35:59.911Z,17.60
2022-09-27T08:38:26.611Z,17.80
2022-09-27T08:40:57.398Z,17.90
2022-09-27T08:43:37.399Z,18.10
2022-09-27T08:46:07.790Z,18.30
2022-09-27T08:48:35.782Z,18.40
2022-09-27T08:51:03.103Z,18.30
2022-09-27T08:53:36.143Z,18.40
2022-09-27T08:56:04.003Z,18.50
2022-09-27T08:58:35.934Z,18.70
2022-09-27T09:01:04.452Z,18.80
2022-09-27T09:03:32.934Z,19.00
2022-09-27T09:06:02.376Z,19.00
2022-09-27T09:08:48.709Z,19.10
2022-09-27T09:11:45.393Z,19.30
2022-09-27T09:14:39.467Z,19.40
2022-09-27T09:17:12.154Z,19.60
2022-09-27T09:19:38.828Z,19.70
2022-09-27T09:22:28.844Z,19.80
2022-09-27T09:25:15.406Z,19.60
2022-09-27T09:27:42.111Z,19.80
2022-09-27T09:30:08.781Z,19.60
2022-09-27T09:32:49.261Z,19.70
2022-09-27T09:35:19.500Z,19.80
2022-09-27T09:37:49.892Z,19.80
2022-09-27T09:40:16.581Z,19.90
2022-09-27T09:42:49.762Z,20.10
2022-09-27T09:45:21.197Z,20.10
2022-09-27T09:48:05.060Z,20.20
2022-09-27T09:50:36.418Z,20.20
2022-09-27T09:53:29.551Z,20.40
2022-09-27T09:56:00.050Z,20.60
2022-09-27T09:58:49.638Z,20.60
2022-09-27T10:01:21.178Z,20.50
2022-09-27T10:03:48.099Z,20.30
2022-09-27T10:06:16.029Z,20.40
2022-09-27T10:08:42.838Z,20.40
2022-09-27T10:11:17.488Z,20.40
2022-09-27T10:13:45.594Z,20.50
2022-09-27T10:16:14.193Z,20.50
2022-09-27T10:18:45.113Z,20.60
2022-09-27T10:21:17.244Z,20.70
2022-09-27T10:24:04.611Z,20.80
2022-09-27T10:26:31.992Z,21.10
2022-09-27T10:29:13.814Z,21.40
2022-09-27T10:31:46.075Z,21.60
2022-09-27T10:34:27.693Z,22.00
2022-09-27T10:37:12.370Z,22.00
2022-09-27T10:39:41.112Z,21.80
2022-09-27T10:42:26.576Z,21.80
2022-09-27T10:44:54.258Z,21.90
2022-09-27T10:47:23.943Z,21.90
2022-09-27T10:49:54.510Z,21.90
2022-09-27T10:52:24.643Z,22.00
2022-09-27T10:54:55.771Z,21.60
2022-09-27T10:57:23.530Z,21.60
2022-09-27T10:59:52.419Z,21.80
2022-09-27T11:02:24.722Z,21.50
2022-09-27T11:05:14.969Z,21.60
2022-09-27T11:07:50.439Z,21.90
2022-09-27T11:10:28.881Z,22.20
2022-09-27T11:13:16.203Z,22.60
2022-09-27T11:16:01.455Z,22.80
2022-09-27T11:18:28.194Z,22.80
2022-09-27T11:20:57.631Z,23.10
2022-09-27T11:23:43.244Z,23.10
2022-09-27T11:26:45.554Z,22.90
2022-09-27T11:29:12.273Z,23.10
2022-09-27T11:32:02.911Z,23.30
2022-09-27T11:34:54.073Z,23.00
2022-09-27T11:37:43.885Z,22.90
2022-09-27T11:40:10.596Z,23.00
2022-09-27T11:42:45.703Z,23.10
2022-09-27T11:45:45.294Z,23.40
2022-09-27T11:48:23.730Z,23.50
2022-09-27T11:50:56.630Z,23.70
2022-09-27T11:53:26.293Z,23.60
2022-09-27T11:55:56.155Z,23.40
2022-09-27T11:58:30.546Z,23.50
2022-09-27T12:01:09.335Z,23.60
2022-09-27T12:03:36.146Z,23.40
2022-09-27T12:06:07.801Z,23.50
2022-09-27T12:08:47.116Z,23.90
2022-09-27T12:11:25.366Z,24.00
2022-09-27T12:14:01.230Z,24.40
2022-09-27T12:16:28.608Z,24.40
2022-09-27T12:18:56.014Z,24.30
2022-09-27T12:21:23.056Z,24.00
2022-09-27T12:23:51.687Z,24.20
2022-09-27T12:26:25.323Z,24.30
2022-09-27T12:28:56.625Z,24.10
2022-09-27T12:31:30.337Z,23.80
2022-09-27T12:34:36.288Z,23.70
2022-09-27T12:37:05.537Z,23.90
2022-09-27T12:39:52.516Z,23.90
2022-09-27T12:42:21.355Z,23.60
2022-09-27T12:44:50.973Z,23.80
2022-09-27T12:47:24.293Z,23.70
2022-09-27T12:50:01.627Z,23.80
2022-09-27T12:52:31.588Z,23.80
2022-09-27T12:55:11.648Z,23.80
2022-09-27T12:57:49.192Z,23.80
2022-09-27T13:00:21.077Z,24.20
2022-09-27T13:03:16.587Z,24.10
2022-09-27T13:06:02.535Z,23.60
2022-09-27T13:08:41.036Z,23.90
2022-09-27T13:11:15.772Z,24.50
2022-09-27T13:13:42.796Z,25.00
2022-09-27T13:16:10.188Z,25.20
2022-09-27T13:18:38.004Z,25.30
2022-09-27T13:21:09.268Z,25.30
2022-09-27T13:23:35.907Z,25.50
2022-09-27T13:26:04.047Z,25.70
2022-09-27T13:28:33.485Z,26.10
2022-09-27T13:31:00.176Z,26.40
2022-09-27T13:33:46.700Z,26.60
2022-09-27T13:36:16.455Z,26.50
2022-09-27T13:38:55.629Z,25.90
2022-09-27T13:41:22.328Z,25.50
2022-09-27T13:43:49.155Z,25.70
2022-09-27T13:46:18.027Z,25.70
2022-09-27T13:48:52.414Z,25.80
2022-09-27T13:51:36.456Z,25.70
2022-09-27T13:54:10.144Z,25.20
2022-09-27T13:56:38.100Z,25.10
2022-09-27T13:59:08.756Z,24.90
2022-09-27T14:01:40.688Z,24.70
2022-09-27T14:04:18.570Z,24.20
2022-09-27T14:06:48.566Z,23.90
2022-09-27T14:09:18.217Z,23.70
2022-09-27T14:11:48.757Z,23.60
2022-09-27T14:14:17.534Z,23.60
2022-09-27T14:16:47.521Z,23.80
2022-09-27T14:19:25.631Z,24.00
2022-09-27T14:21:52.850Z,24.20
2022-09-27T14:24:24.372Z,24.10
2022-09-27T14:27:02.831Z,24.20
2022-09-27T14:29:31.759Z,23.80
2022-09-27T14:32:10.548Z,23.70
2022-09-27T14:34:37.274Z,23.80
2022-09-27T14:37:22.384Z,23.90
2022-09-27T14:39:53.437Z,23.80
2022-09-27T14:42:21.647Z,24.10
2022-09-27T14:44:49.238Z,24.20
2022-09-27T14:47:19.049Z,24.10
2022-09-27T14:49:47.176Z,24.10
2022-09-27T14:52:16.970Z,23.90
2022-09-27T14:54:45.121Z,23.90
2022-09-27T14:57:14.333Z,24.10
2022-09-27T14:59:44.583Z,24.00
2022-09-27T15:02:17.528Z,23.80
2022-09-27T15:04:46.925Z,23.70
2022-09-27T15:07:15.856Z,23.80
2022-09-27T15:09:43.001Z,23.90
2022-09-27T15:12:11.267Z,23.80
2022-09-27T15:14:42.332Z,23.60
2022-09-27T15:17:16.759Z,23.40
2022-09-27T15:19:56.425Z,23.50
2022-09-27T15:22:24.536Z,23.50
2022-09-27T15:24:51.222Z,23.70
2022-09-27T15:27:18.130Z,23.90
2022-09-27T15:30:04.117Z,24.10
2022-09-27T15:32:31.095Z,24.40
2022-09-27T15:35:06.022Z,24.90
2022-09-27T15:37:37.189Z,25.20
2022-09-27T15:40:16.509Z,25.10
2022-09-27T15:43:00.287Z,24.60
2022-09-27T15:45:28.016Z,24.50
2022-09-27T15:47:54.681Z,24.50
2022-09-27T15:50:27.450Z,24.70
2022-09-27T15:52:57.191Z,24.60
2022-09-27T15:55:29.902Z,24.40
2022-09-27T15:58:22.815Z,24.50
2022-09-27T16:00:53.267Z,24.60
2022-09-27T16:03:20.582Z,24.50
2022-09-27T16:05:47.387Z,24.60
2022-09-27T16:08:14.053Z,24.80
2022-09-27T16:10:43.076Z,24.80
2022-09-27T16:13:09.881Z,24.60
2022-09-27T16:15:37.229Z,24.00
2022-09-27T16:18:04.136Z,23.70
2022-09-27T16:20:32.208Z,23.40
2022-09-27T16:22:59.059Z,23.10
2022-09-27T16:25:25.983Z,23.20
2022-09-27T16:27:52.722Z,23.40
2022-09-27T16:30:20.927Z,23.70
2022-09-27T16:32:48.466Z,23.80
2022-09-27T16:35:24.116Z,23.80
2022-09-27T16:37:50.866Z,23.80
2022-09-27T16:40:18.677Z,23.50
2022-09-27T16:42:47.957Z,23.40
2022-09-27T16:45:19.284Z,23.20
2022-09-27T16:47:46.681Z,23.10
2022-09-27T16:50:32.357Z,22.80
2022-09-27T16:53:00.183Z,22.60
2022-09-27T16:55:28.795Z,22.30
2022-09-27T16:57:58.157Z,22.10
2022-09-27T17:00:25.276Z,21.90
2022-09-27T17:02:53.105Z,21.70
2022-09-27T17:05:20.335Z,21.50
2022-09-27T17:07:50.050Z,21.30
2022-09-27T17:10:17.335Z,21.20
2022-09-27T17:12:44.228Z,21.10
2022-09-27T17:15:10.915Z,20.80
2022-09-27T17:17:38.077Z,20.60
2022-09-27T17:20:05.059Z,20.40
2022-09-27T17:22:34.554Z,20.30
2022-09-27T17:25:01.651Z,20.20
2022-09-27T17:27:28.929Z,20.00
2022-09-27T17:29:56.058Z,19.80
2022-09-27T17:32:23.806Z,19.70
2022-09-27T17:34:51.074Z,19.60
2022-09-27T17:37:17.942Z,19.60
2022-09-27T17:39:44.686Z,19.60
2022-09-27T17:42:12.719Z,19.50
2022-09-27T17:44:39.495Z,19.40
2022-09-27T17:47:24.690Z,19.30
2022-09-27T17:50:10.178Z,19.20
2022-09-27T17:52:37.574Z,19.10
2022-09-27T17:55:04.432Z,19.00
2022-09-27T17:57:31.869Z,18.90
2022-09-27T17:59:58.710Z,18.80
2022-09-27T18:02:26.247Z,18.70
2022-09-27T18:04:53.086Z,18.80
2022-09-27T18:07:20.049Z,18.80
2022-09-27T18:09:46.813Z,18.70
2022-09-27T18:12:13.736Z,18.70
2022-09-27T18:14:40.577Z,18.70
2022-09-27T18:17:07.351Z,18.70
2022-09-27T18:19:34.115Z,18.80
2022-09-27T18:22:00.891Z,18.80
2022-09-27T18:24:27.671Z,18.80
2022-09-27T18:26:55.863Z,18.90
2022-09-27T18:29:22.782Z,18.90
2022-09-27T18:31:49.630Z,18.90
2022-09-27T18:34:17.056Z,18.90
2022-09-27T18:36:44.681Z,18.90
2022-09-27T18:39:17.573Z,18.90
2022-09-27T18:41:45.494Z,18.90
2022-09-27T18:44:13.947Z,18.90
2022-09-27T18:46:41.111Z,18.90
2022-09-27T18:49:10.692Z,18.90
2022-09-27T18:51:41.156Z,18.90
2022-09-27T18:54:11.552Z,18.90
2022-09-27T18:56:41.538Z,18.90
2022-09-27T18:59:09.195Z,18.90
2022-09-27T19:01:39.789Z,18.80
2022-09-27T19:04:10.045Z,18.80
2022-09-27T19:06:37.520Z,18.70
2022-09-27T19:09:05.194Z,18.70
2022-09-27T19:11:32.148Z,18.70
2022-09-27T19:13:58.967Z,18.60
2022-09-27T19:16:35.013Z,18.50
2022-09-27T19:19:07.470Z,18.50
2022-09-27T19:21:34.191Z,18.50
2022-09-27T19:24:01.141Z,18.40
2022-09-27T19:26:27.975Z,18.40
2022-09-27T19:28:54.975Z,18.30
2022-09-27T19:31:25.941Z,18.40
2022-09-27T19:33:57.448Z,18.30
2022-09-27T19:36:26.797Z,18.30
2022-09-27T19:38:53.565Z,18.30
2022-09-27T19:41:20.256Z,18.30
2022-09-27T19:43:50.910Z,18.30
2022-09-27T19:46:17.967Z,18.20
2022-09-27T19:48:45.302Z,18.20
2022-09-27T19:51:16.400Z,18.20
2022-09-27T19:53:43.195Z,18.20
2022-09-27T19:56:10.499Z,18.20
2022-09-27T19:58:40.374Z,18.20
2022-09-27T20:01:08.266Z,18.10
2022-09-27T20:03:35.945Z,18.10
2022-09-27T20:06:03.439Z,18.10
2022-09-27T20:08:31.067Z,18.10
2022-09-27T20:11:03.779Z,18.10
2022-09-27T20:13:33.794Z,18.10
2022-09-27T20:16:02.114Z,18.10
2022-09-27T20:18:28.952Z,18.10
2022-09-27T20:20:58.702Z,18.10
2022-09-27T20:23:25.465Z,18.10
2022-09-27T20:25:52.154Z,18.10
2022-09-27T20:28:18.877Z,18.10
2022-09-27T20:30:55.145Z,18.00
2022-09-27T20:33:40.301Z,18.00
2022-09-27T20:36:26.380Z,18.00
2022-09-27T20:39:01.977Z,18.00
2022-09-27T20:41:30.856Z,17.90
2022-09-27T20:44:00.307Z,17.90
2022-09-27T20:46:27.077Z,17.80
2022-09-27T20:48:54.629Z,17.80
2022-09-27T20:51:21.814Z,17.90
2022-09-27T20:53:51.496Z,17.90
2022-09-27T20:56:19.628Z,17.90
2022-09-27T20:58:47.494Z,17.90
2022-09-27T21:01:14.415Z,17.90
2022-09-27T21:03:41.453Z,17.80
2022-09-27T21:06:08.250Z,17.80
2022-09-27T21:08:35.356Z,17.80
2022-09-27T21:11:06.343Z,17.80
2022-09-27T21:13:33.221Z,17.70
2022-09-27T21:16:01.152Z,17.70
2022-09-27T21:18:27.897Z,17.60
2022-09-27T21:20:59.056Z,17.60
2022-09-27T21:23:26.033Z,17.60
2022-09-27T21:26:18.935Z,17.60
2022-09-27T21:28:46.834Z,17.50
2022-09-27T21:31:17.628Z,17.50
2022-09-27T21:33:48.690Z,17.50
2022-09-27T21:36:15.453Z,17.40
2022-09-27T21:38:42.219Z,17.30
2022-09-27T21:41:14.691Z,17.30
2022-09-27T21:43:41.961Z,17.30
2022-09-27T21:46:10.075Z,17.20
2022-09-27T21:48:37.447Z,17.20
2022-09-27T21:51:11.358Z,17.20
2022-09-27T21:53:39.449Z,17.20
2022-09-27T21:56:06.512Z,17.20
2022-09-27T21:58:33.789Z,17.20
2022-09-27T22:01:06.142Z,17.20
2022-09-27T22:03:36.748Z,17.20
2022-09-27T22:06:04.317Z,17.20
2022-09-27T22:08:31.340Z,17.20
2022-09-27T22:10:58.041Z,17.10
2022-09-27T22:13:24.715Z,17.10
2022-09-27T22:15:52.207Z,17.20
2022-09-27T22:18:19.032Z,17.10
2022-09-27T22:20:46.092Z,17.10
2022-09-27T22:23:12.842Z,17.10
2022-09-27T22:25:40.608Z,17.10
2022-09-27T22:28:08.360Z,17.00
2022-09-27T22:30:35.211Z,17.00
2022-09-27T22:33:01.882Z,17.10
2022-09-27T22:35:28.658Z,17.10
2022-09-27T22:37:55.545Z,17.00
2022-09-27T22:40:22.199Z,17.10
2022-09-27T22:42:48.868Z,17.10
2022-09-27T22:45:15.620Z,17.00
2022-09-27T22:47:42.283Z,17.00
2022-09-27T22:50:09.166Z,17.00
2022-09-27T22:52:35.842Z,17.10
2022-09-27T22:55:02.501Z,17.10
2022-09-27T22:57:29.146Z,17.10
2022-09-27T22:59:55.860Z,17.10
2022-09-27T23:02:22.691Z,17.10
2022-09-27T23:04:49.323Z,17.00
2022-09-27T23:07:16.065Z,17.00
2022-09-27T23:09:42.721Z,17.00
2022-09-27T23:12:09.433Z,17.00
2022-09-27T23:14:40.425Z,16.90
2022-09-27T23:17:09.062Z,16.90
2022-09-27T23:19:35.789Z,16.80
2022-09-27T23:22:03.646Z,16.70
2022-09-27T23:24:30.482Z,16.70
2022-09-27T23:27:15.448Z,16.70
2022-09-27T23:29:42.573Z,16.70
2022-09-27T23:32:09.224Z,16.70
2022-09-27T23:34:35.895Z,16.80
2022-09-27T23:37:02.551Z,16.80
2022-09-27T23:39:29.209Z,16.70
2022-09-27T23:41:55.918Z,16.70
2022-09-27T23:44:22.940Z,16.70
2022-09-27T23:46:49.686Z,16.70
2022-09-27T23:49:18.300Z,16.70
2022-09-27T23:51:45.337Z,16.70
2022-09-27T23:54:12.646Z,16.60
2022-09-27T23:56:39.407Z,16.60
2022-09-27T23:59:06.154Z,16.60
